Time;durP1;ratioP1;P1;durP2;ratioP2;P2;SDS_P1;SDS_P2;PMS_P1;PMS_P2;Temp;Humidity;BMP_temperature;BMP_pressure;BME280_temperature;BME280_humidity;BME280_pressure;Samples;Min_cycle;Max_cycle;Signal;HPM_P1;HPM_P2
2023/04/29 00:01:42;;;;;;;;;;;;;;;11.34;100.00;95557.47;5067072;28;19924;-72
2023/04/29 00:04:08;;;;;;;;;;;;;;;11.31;100.00;95555.09;5078748;28;19974;-73
2023/04/29 00:06:35;;;;;;;;;;;;;;;11.29;100.00;95549.22;5078416;28;20027;-73
2023/04/29 00:09:01;;;;;;;;;;;;;;;11.12;100.00;95563.31;5080938;28;19958;-73
2023/04/29 00:11:27;;;;;;;;;;;;;;;10.95;100.00;95561.88;5075272;28;19932;-73
2023/04/29 00:13:54;;;;;;;;;;;;;;;10.87;100.00;95557.22;5076351;28;19932;-73
2023/04/29 00:16:21;;;;;;;;;;;;;;;10.78;100.00;95554.41;5077850;28;19988;-73
2023/04/29 00:18:48;;;;;;;;;;;;;;;10.64;100.00;95550.13;5069766;28;19929;-73
2023/04/29 00:21:14;;;;;;;;;;;;;;;10.50;100.00;95547.66;5083261;28;20003;-73
2023/04/29 00:23:40;;;;;;;;;;;;;;;10.40;100.00;95552.59;5074731;28;19971;-73
2023/04/29 00:26:07;;;;;;;;;;;;;;;10.22;100.00;95557.19;5075914;28;19931;-73
2023/04/29 00:28:33;;;;;;;;;;;;;;;10.10;100.00;95553.63;5078183;28;19929;-73
2023/04/29 00:31:00;;;;;;;;;;;;;;;9.98;100.00;95551.84;5084734;28;20021;-73
2023/04/29 00:33:27;;;;;;;;;;;;;;;10.02;100.00;95557.63;5078707;28;19929;-73
2023/04/29 00:35:53;;;;;;;;;;;;;;;10.00;100.00;95555.13;5077265;28;20338;-73
2023/04/29 00:38:20;;;;;;;;;;;;;;;9.94;100.00;95558.13;5072851;28;19931;-73
2023/04/29 00:40:46;;;;;;;;;;;;;;;9.91;100.00;95555.72;5082962;28;19978;-73
2023/04/29 00:43:12;;;;;;;;;;;;;;;9.91;100.00;95558.31;5082988;28;19990;-73
2023/04/29 00:45:39;;;;;;;;;;;;;;;9.83;100.00;95550.22;5072088;28;20375;-73
2023/04/29 00:48:05;;;;;;;;;;;;;;;9.90;100.00;95554.91;5078974;28;20427;-73
2023/04/29 00:50:33;;;;;;;;;;;;;;;9.83;100.00;95561.41;5072293;28;19933;-73
2023/04/29 00:52:59;;;;;;;;;;;;;;;9.94;100.00;95558.97;5084861;28;19950;-73
2023/04/29 00:55:26;;;;;;;;;;;;;;;9.98;100.00;95559.59;5085330;28;19924;-73
2023/04/29 00:57:52;;;;;;;;;;;;;;;9.87;100.00;95560.28;5072967;28;19958;-73
2023/04/29 01:00:19;;;;;;;;;;;;;;;9.87;100.00;95564.63;5080702;28;19924;-73
2023/04/29 01:02:46;;;;;;;;;;;;;;;9.90;100.00;95559.22;5082888;28;19924;-72
2023/04/29 01:05:13;;;;;;;;;;;;;;;9.83;100.00;95560.56;5081083;28;19935;-72
2023/04/29 01:07:45;;;;;;;;;;;;;;;9.73;100.00;95562.06;5082016;28;19955;-73
2023/04/29 01:10:15;;;;;;;;;;;;;;;9.82;100.00;95557.13;5082648;28;19924;-72
2023/04/29 01:12:45;;;;;;;;;;;;;;;9.73;100.00;95557.72;5077976;28;20314;-73
2023/04/29 01:15:17;;;;;;;;;;;;;;;9.72;100.00;95556.06;5075737;28;19990;-72
2023/04/29 01:17:47;;;;;;;;;;;;;;;9.81;100.00;95550.31;5087184;28;19928;-73
2023/04/29 01:20:13;;;;;;;;;;;;;;;9.80;100.00;95553.81;5087542;28;20032;-73
2023/04/29 01:22:41;;;;;;;;;;;;;;;9.77;100.00;95556.59;5080341;28;19948;-73
2023/04/29 01:25:09;;;;;;;;;;;;;;;9.66;100.00;95559.84;5083220;28;20341;-73
2023/04/29 01:27:39;;;;;;;;;;;;;;;9.62;100.00;95555.81;5080187;28;19924;-73
2023/04/29 01:30:10;;;;;;;;;;;;;;;9.79;100.00;95556.50;5077925;28;19932;-73
2023/04/29 01:32:41;;;;;;;;;;;;;;;10.05;100.00;95560.00;5072859;28;19971;-73
2023/04/29 01:35:10;;;;;;;;;;;;;;;9.88;100.00;95559.34;5066718;28;19933;-73
2023/04/29 01:37:41;;;;;;;;;;;;;;;9.92;100.00;95547.88;5072987;28;20333;-73
2023/04/29 01:40:12;;;;;;;;;;;;;;;9.90;100.00;95554.06;5076377;28;20369;-72
2023/04/29 01:42:39;;;;;;;;;;;;;;;9.84;100.00;95559.63;5078714;28;19932;-73
2023/04/29 01:45:08;;;;;;;;;;;;;;;9.81;100.00;95560.66;5088156;28;19924;-73
2023/04/29 01:47:35;;;;;;;;;;;;;;;9.70;100.00;95557.91;5075602;28;20338;-72
2023/04/29 01:50:02;;;;;;;;;;;;;;;9.66;100.00;95546.94;5077066;28;19924;-73
2023/04/29 01:52:29;;;;;;;;;;;;;;;9.50;100.00;95550.56;5081895;28;20295;-73
2023/04/29 01:54:56;;;;;;;;;;;;;;;9.32;100.00;95545.59;5081006;28;20449;-73
2023/04/29 01:57:23;;;;;;;;;;;;;;;9.18;100.00;95549.03;5076649;28;19924;-73
2023/04/29 01:59:49;;;;;;;;;;;;;;;9.16;100.00;95550.06;5077440;28;19978;-73
2023/04/29 02:02:19;;;;;;;;;;;;;;;9.36;100.00;95549.66;5085054;28;19928;-72
2023/04/29 02:04:46;;;;;;;;;;;;;;;9.38;100.00;95542.66;5086592;28;19925;-72
2023/04/29 02:07:12;;;;;;;;;;;;;;;9.31;100.00;95543.13;5080278;28;19938;-73
2023/04/29 02:09:38;;;;;;;;;;;;;;;9.40;100.00;95548.53;5084542;28;19924;-73
2023/04/29 02:12:05;;;;;;;;;;;;;;;9.40;100.00;95548.53;5082695;28;20389;-72
2023/04/29 02:14:33;;;;;;;;;;;;;;;9.37;100.00;95551.31;5073941;28;19924;-73
2023/04/29 02:16:59;;;;;;;;;;;;;;;9.32;100.00;95555.94;5082539;28;20275;-73
2023/04/29 02:19:25;;;;;;;;;;;;;;;9.35;100.00;95553.19;5078347;28;19925;-73
2023/04/29 02:21:52;;;;;;;;;;;;;;;9.29;100.00;95557.88;5081225;28;19931;-72
2023/04/29 02:24:18;;;;;;;;;;;;;;;9.03;100.00;95555.13;5075762;28;19928;-73
2023/04/29 02:26:44;;;;;;;;;;;;;;;8.93;100.00;95564.34;5086310;28;19928;-73
2023/04/29 02:29:11;;;;;;;;;;;;;;;9.09;100.00;95559.09;5093087;28;19970;-72
2023/04/29 02:31:38;;;;;;;;;;;;;;;9.28;100.00;95562.22;5078870;28;20017;-72
2023/04/29 02:34:05;;;;;;;;;;;;;;;9.06;100.00;95562.69;5080014;28;19929;-73
2023/04/29 02:36:31;;;;;;;;;;;;;;;9.07;100.00;95558.34;5080334;28;19929;-72
2023/04/29 02:38:58;;;;;;;;;;;;;;;9.01;100.00;95563.88;5068894;28;20021;-72
2023/04/29 02:41:25;;;;;;;;;;;;;;;9.05;100.00;95565.34;5081623;28;20558;-73
2023/04/29 02:43:51;;;;;;;;;;;;;;;8.90;100.00;95561.97;5079866;28;20003;-73
2023/04/29 02:46:18;;;;;;;;;;;;;;;8.80;100.00;95560.84;5066734;28;19933;-73
2023/04/29 02:48:45;;;;;;;;;;;;;;;8.95;100.00;95552.19;5074961;28;20015;-72
2023/04/29 02:51:12;;;;;;;;;;;;;;;9.02;100.00;95552.66;5082508;28;19969;-73
2023/04/29 02:53:38;;;;;;;;;;;;;;;8.98;100.00;95556.34;5082227;28;19928;-73
2023/04/29 02:56:05;;;;;;;;;;;;;;;8.93;100.00;95557.41;5081496;28;19932;-73
2023/04/29 02:58:31;;;;;;;;;;;;;;;8.85;100.00;95553.63;5081224;28;19924;-73
2023/04/29 03:00:58;;;;;;;;;;;;;;;8.94;100.00;95559.09;5080361;28;19928;-72
2023/04/29 03:03:24;;;;;;;;;;;;;;;9.03;100.00;95552.53;5081555;28;20404;-73
2023/04/29 03:05:51;;;;;;;;;;;;;;;9.14;100.00;95560.47;5082866;28;19924;-73
2023/04/29 03:08:18;;;;;;;;;;;;;;;9.24;100.00;95554.75;5071909;28;19936;-72
2023/04/29 03:10:45;;;;;;;;;;;;;;;9.43;100.00;95555.28;5078892;28;20457;-73
2023/04/29 03:13:11;;;;;;;;;;;;;;;9.51;100.00;95558.22;5073395;28;20282;-73
2023/04/29 03:15:38;;;;;;;;;;;;;;;9.57;100.00;95554.44;5080626;28;19950;-72
2023/04/29 03:18:04;;;;;;;;;;;;;;;9.55;100.00;95557.09;5082490;28;19928;-72
2023/04/29 03:20:31;;;;;;;;;;;;;;;9.57;100.00;95557.84;5079108;28;19985;-73
2023/04/29 03:22:59;;;;;;;;;;;;;;;9.64;100.00;95559.13;5081863;28;20015;-73
2023/04/29 03:25:27;;;;;;;;;;;;;;;9.82;100.00;95545.94;5075529;28;19930;-73
2023/04/29 03:27:53;;;;;;;;;;;;;;;9.91;100.00;95548.81;5081494;28;19928;-73
2023/04/29 03:30:19;;;;;;;;;;;;;;;9.87;100.00;95542.16;5068043;28;19924;-73
2023/04/29 03:32:45;;;;;;;;;;;;;;;9.93;100.00;95546.09;5080417;28;19928;-73
2023/04/29 03:35:12;;;;;;;;;;;;;;;10.00;100.00;95543.97;5072450;28;19970;-73
2023/04/29 03:37:38;;;;;;;;;;;;;;;10.03;100.00;95533.41;5068323;28;19928;-73
2023/04/29 03:40:06;;;;;;;;;;;;;;;10.08;100.00;95533.94;5067777;28;19928;-72
2023/04/29 03:42:33;;;;;;;;;;;;;;;10.23;100.00;95543.28;5076356;28;19990;-73
2023/04/29 03:44:59;;;;;;;;;;;;;;;10.27;100.00;95536.19;5080102;28;20053;-72
2023/04/29 03:47:25;;;;;;;;;;;;;;;10.23;100.00;95537.28;5078986;28;19932;-72
2023/04/29 03:49:52;;;;;;;;;;;;;;;10.18;100.00;95535.00;5081179;28;19928;-72
2023/04/29 03:52:18;;;;;;;;;;;;;;;10.21;100.00;95540.00;5077174;28;20375;-72
2023/04/29 03:54:45;;;;;;;;;;;;;;;10.18;100.00;95538.44;5075748;28;19989;-73
2023/04/29 03:57:12;;;;;;;;;;;;;;;10.18;100.00;95542.78;5074667;28;19924;-73
2023/04/29 03:59:39;;;;;;;;;;;;;;;10.22;100.00;95541.66;5078631;28;19929;-73
2023/04/29 04:02:05;;;;;;;;;;;;;;;10.21;100.00;95544.34;5075879;28;19963;-73
2023/04/29 04:04:31;;;;;;;;;;;;;;;10.24;100.00;95544.97;5069331;28;20001;-72
2023/04/29 04:06:58;;;;;;;;;;;;;;;10.10;100.00;95550.22;5077885;28;19928;-72
2023/04/29 04:09:24;;;;;;;;;;;;;;;10.09;100.00;95544.22;5080593;28;19928;-73
2023/04/29 04:11:50;;;;;;;;;;;;;;;9.86;100.00;95539.66;5076201;28;19925;-73
2023/04/29 04:14:18;;;;;;;;;;;;;;;9.88;100.00;95541.22;5066948;28;19933;-73
2023/04/29 04:16:44;;;;;;;;;;;;;;;9.90;100.00;95551.47;5079815;28;19928;-72
2023/04/29 04:19:10;;;;;;;;;;;;;;;9.91;100.00;95551.38;5068429;28;19924;-72
2023/04/29 04:21:37;;;;;;;;;;;;;;;9.88;100.00;95548.16;5078199;28;20383;-71
2023/04/29 04:24:03;;;;;;;;;;;;;;;9.97;100.00;95555.31;5074620;28;20027;-73
2023/04/29 04:26:29;;;;;;;;;;;;;;;9.93;100.00;95557.28;5085551;28;19928;-73
2023/04/29 04:28:56;;;;;;;;;;;;;;;9.86;100.00;95553.44;5082317;28;19928;-73
2023/04/29 04:31:24;;;;;;;;;;;;;;;9.88;100.00;95561.91;5076364;28;19924;-73
2023/04/29 04:33:50;;;;;;;;;;;;;;;9.88;100.00;95559.34;5078837;28;19951;-73
2023/04/29 04:36:16;;;;;;;;;;;;;;;9.91;100.00;95571.25;5088845;28;19971;-73
2023/04/29 04:38:43;;;;;;;;;;;;;;;9.99;100.00;95574.19;5079996;28;19928;-73
2023/04/29 04:41:09;;;;;;;;;;;;;;;9.97;100.00;95570.03;5084519;28;19924;-73
2023/04/29 04:43:35;;;;;;;;;;;;;;;10.01;100.00;95580.09;5080520;28;20028;-73
2023/04/29 04:46:09;;;;;;;;;;;;;;;9.98;100.00;95588.06;5079422;28;19924;-73
2023/04/29 04:48:37;;;;;;;;;;;;;;;10.13;100.00;95587.06;5083182;28;19924;-73
2023/04/29 04:51:07;;;;;;;;;;;;;;;10.20;100.00;95595.28;5083708;28;20048;-73
2023/04/29 04:53:33;;;;;;;;;;;;;;;10.22;100.00;95603.75;5086273;28;19924;-73
2023/04/29 04:56:00;;;;;;;;;;;;;;;10.22;100.00;95603.75;5079649;28;19932;-73
2023/04/29 04:58:26;;;;;;;;;;;;;;;10.27;100.00;95604.34;5085601;28;19924;-73
2023/04/29 05:00:53;;;;;;;;;;;;;;;10.27;100.00;95603.50;5080645;28;19936;-73
2023/04/29 05:03:19;;;;;;;;;;;;;;;10.28;100.00;95610.34;5082251;28;20340;-73
2023/04/29 05:05:52;;;;;;;;;;;;;;;10.24;100.00;95609.69;5083028;28;20332;-73
2023/04/29 05:08:19;;;;;;;;;;;;;;;10.25;100.00;95619.13;5079528;28;20352;-73
2023/04/29 05:10:45;;;;;;;;;;;;;;;10.43;100.00;95624.91;5081948;28;19932;-73
2023/04/29 05:13:11;;;;;;;;;;;;;;;10.53;100.00;95620.78;5078304;28;19932;-72
2023/04/29 05:15:38;;;;;;;;;;;;;;;10.54;100.00;95624.19;5086491;28;19928;-72
2023/04/29 05:18:04;;;;;;;;;;;;;;;10.52;100.00;95621.69;5081043;28;19932;-72
2023/04/29 05:20:30;;;;;;;;;;;;;;;10.62;100.00;95629.72;5077364;28;19924;-72
2023/04/29 05:22:58;;;;;;;;;;;;;;;10.70;100.00;95627.44;5068859;28;19970;-73
2023/04/29 05:25:24;;;;;;;;;;;;;;;10.72;100.00;95624.78;5072913;28;20399;-72
2023/04/29 05:27:52;;;;;;;;;;;;;;;10.76;100.00;95623.63;5072809;28;20014;-72
2023/04/29 05:30:18;;;;;;;;;;;;;;;11.03;100.00;95624.38;5077506;28;19924;-73
2023/04/29 05:32:44;;;;;;;;;;;;;;;11.08;100.00;95632.66;5081231;28;20314;-73
2023/04/29 05:35:11;;;;;;;;;;;;;;;11.02;100.00;95638.28;5087919;28;20010;-74
2023/04/29 05:37:37;;;;;;;;;;;;;;;10.94;100.00;95637.09;5076370;28;19937;-73
2023/04/29 05:40:06;;;;;;;;;;;;;;;11.00;100.00;95642.72;5074234;28;19977;-73
2023/04/29 05:42:32;;;;;;;;;;;;;;;11.00;100.00;95639.31;5081455;28;19935;-73
2023/04/29 05:44:58;;;;;;;;;;;;;;;11.01;100.00;95646.13;5078845;28;19932;-72
2023/04/29 05:47:24;;;;;;;;;;;;;;;11.04;100.00;95651.13;5066297;28;19928;-72
2023/04/29 05:49:51;;;;;;;;;;;;;;;11.17;100.00;95658.94;5068894;28;20283;-73
2023/04/29 05:52:17;;;;;;;;;;;;;;;11.33;100.00;95668.16;5075142;28;19928;-73
2023/04/29 05:54:43;;;;;;;;;;;;;;;11.39;100.00;95664.31;5074809;28;19970;-73
2023/04/29 05:57:11;;;;;;;;;;;;;;;11.47;100.00;95667.22;5081326;28;19924;-73
2023/04/29 05:59:37;;;;;;;;;;;;;;;11.31;100.00;95677.81;5080535;28;19928;-73
2023/04/29 06:02:04;;;;;;;;;;;;;;;11.29;100.00;95682.25;5068660;28;19928;-73
2023/04/29 06:04:30;;;;;;;;;;;;;;;11.14;100.00;95684.09;5087311;28;19928;-73
2023/04/29 06:06:56;;;;;;;;;;;;;;;11.02;100.00;95684.09;5076208;28;19924;-73
2023/04/29 06:09:24;;;;;;;;;;;;;;;11.09;100.00;95696.56;5082061;28;19928;-73
2023/04/29 06:11:50;;;;;;;;;;;;;;;11.13;100.00;95700.59;5071560;28;19931;-73
2023/04/29 06:14:18;;;;;;;;;;;;;;;11.04;100.00;95705.53;5082528;28;19924;-73
2023/04/29 06:16:44;;;;;;;;;;;;;;;11.01;100.00;95711.78;5081930;28;19929;-73
2023/04/29 06:19:10;;;;;;;;;;;;;;;10.92;100.00;95716.72;5084806;28;19924;-73
2023/04/29 06:21:36;;;;;;;;;;;;;;;10.74;100.00;95719.56;5081962;28;19925;-73
2023/04/29 06:24:03;;;;;;;;;;;;;;;11.07;100.00;95726.91;5079014;28;19928;-73
2023/04/29 06:26:29;;;;;;;;;;;;;;;11.19;100.00;95729.63;5065020;28;19928;-73
2023/04/29 06:28:55;;;;;;;;;;;;;;;11.16;100.00;95728.09;5065988;28;19939;-72
2023/04/29 06:31:23;;;;;;;;;;;;;;;11.40;100.00;95728.22;5063510;28;19924;-72
2023/04/29 06:33:50;;;;;;;;;;;;;;;11.55;100.00;95732.38;5071893;28;19928;-72
2023/04/29 06:36:16;;;;;;;;;;;;;;;11.25;100.00;95740.44;5061490;28;19978;-72
2023/04/29 06:38:42;;;;;;;;;;;;;;;11.46;100.00;95748.56;5073741;28;19928;-72
2023/04/29 06:41:09;;;;;;;;;;;;;;;11.50;100.00;95744.00;5070515;28;19924;-72
2023/04/29 06:43:35;;;;;;;;;;;;;;;11.72;100.00;95748.59;5067873;28;19928;-72
2023/04/29 06:46:01;;;;;;;;;;;;;;;11.57;100.00;95751.28;5079505;28;19924;-72
2023/04/29 06:48:29;;;;;;;;;;;;;;;11.55;100.00;95754.88;5075758;28;19928;-72
2023/04/29 06:50:56;;;;;;;;;;;;;;;11.52;100.00;95752.50;5074032;28;19936;-72
2023/04/29 06:53:23;;;;;;;;;;;;;;;11.43;100.00;95755.72;5078597;28;19939;-72
2023/04/29 06:55:49;;;;;;;;;;;;;;;11.38;100.00;95759.44;5073024;28;20341;-72
2023/04/29 06:58:16;;;;;;;;;;;;;;;11.32;100.00;95756.41;5078621;28;20382;-72
2023/04/29 07:00:44;;;;;;;;;;;;;;;11.26;100.00;95760.22;5068939;28;19929;-72
2023/04/29 07:03:10;;;;;;;;;;;;;;;11.23;100.00;95759.59;5069760;28;19928;-73
2023/04/29 07:05:39;;;;;;;;;;;;;;;11.23;100.00;95755.25;5080883;28;20007;-73
2023/04/29 07:08:06;;;;;;;;;;;;;;;11.41;100.00;95757.56;5081538;28;20019;-73
2023/04/29 07:10:32;;;;;;;;;;;;;;;11.33;100.00;95758.06;5077834;28;19965;-73
2023/04/29 07:12:59;;;;;;;;;;;;;;;11.29;100.00;95760.03;5071629;28;19936;-73
2023/04/29 07:15:25;;;;;;;;;;;;;;;11.29;100.00;95764.41;5075366;28;20372;-73
2023/04/29 07:17:51;;;;;;;;;;;;;;;11.38;100.00;95764.63;5079441;28;19928;-73
2023/04/29 07:20:18;;;;;;;;;;;;;;;11.41;100.00;95767.94;5062778;28;20390;-73
2023/04/29 07:22:45;;;;;;;;;;;;;;;11.54;100.00;95768.78;5081282;28;19928;-73
2023/04/29 07:25:12;;;;;;;;;;;;;;;11.50;100.00;95773.34;5077532;28;20329;-73
2023/04/29 07:27:38;;;;;;;;;;;;;;;11.66;100.00;95774.94;5083007;28;19927;-73
2023/04/29 07:30:05;;;;;;;;;;;;;;;11.76;100.00;95779.41;5075380;28;19932;-72
2023/04/29 07:32:31;;;;;;;;;;;;;;;12.00;100.00;95778.69;5074088;28;19938;-73
2023/04/29 07:34:58;;;;;;;;;;;;;;;12.15;100.00;95776.81;5072843;28;19935;-72
2023/04/29 07:37:24;;;;;;;;;;;;;;;12.00;100.00;95778.69;5072675;28;19924;-72
2023/04/29 07:39:52;;;;;;;;;;;;;;;11.99;100.00;95777.03;5080610;28;19928;-73
2023/04/29 07:42:18;;;;;;;;;;;;;;;11.99;100.00;95777.88;5066625;28;20405;-72
2023/04/29 07:44:45;;;;;;;;;;;;;;;11.98;100.00;95772.78;5072474;28;19993;-72
2023/04/29 07:47:11;;;;;;;;;;;;;;;12.08;100.00;95776.41;5075719;28;20331;-73
2023/04/29 07:49:37;;;;;;;;;;;;;;;11.97;100.00;95778.91;5069111;28;19932;-72
2023/04/29 07:52:04;;;;;;;;;;;;;;;11.89;100.00;95782.00;5060613;28;19930;-72
2023/04/29 07:54:30;;;;;;;;;;;;;;;11.74;100.00;95791.63;5066945;28;19974;-72
2023/04/29 07:56:59;;;;;;;;;;;;;;;11.72;100.00;95790.91;5079402;28;19974;-72
2023/04/29 07:59:25;;;;;;;;;;;;;;;11.79;100.00;95788.72;5078973;28;20409;-72
2023/04/29 08:01:52;;;;;;;;;;;;;;;11.81;100.00;95787.69;5076231;28;20341;-72
2023/04/29 08:04:18;;;;;;;;;;;;;;;11.95;100.00;95783.38;5081668;28;20391;-73
2023/04/29 08:06:45;;;;;;;;;;;;;;;12.21;100.00;95784.19;5080071;28;20012;-74
2023/04/29 08:09:11;;;;;;;;;;;;;;;12.32;100.00;95789.47;5077337;28;20401;-73
2023/04/29 08:11:38;;;;;;;;;;;;;;;12.27;100.00;95791.53;5077389;28;19951;-73
2023/04/29 08:14:06;;;;;;;;;;;;;;;12.23;100.00;95795.28;5078997;28;19946;-73
2023/04/29 08:16:32;;;;;;;;;;;;;;;12.08;100.00;95789.38;5078027;28;19933;-74
2023/04/29 08:18:59;;;;;;;;;;;;;;;12.31;100.00;95799.03;5069552;28;20398;-74
2023/04/29 08:21:26;;;;;;;;;;;;;;;12.22;100.00;95804.00;5093780;28;19924;-74
2023/04/29 08:23:53;;;;;;;;;;;;;;;12.30;100.00;95802.53;5088734;28;19929;-73
2023/04/29 08:26:19;;;;;;;;;;;;;;;12.25;100.00;95802.03;5061992;28;19947;-73
2023/04/29 08:28:46;;;;;;;;;;;;;;;12.22;100.00;95802.25;5075858;28;19924;-74
2023/04/29 08:31:17;;;;;;;;;;;;;;;12.23;100.00;95795.28;5087004;28;19928;-74
2023/04/29 08:33:43;;;;;;;;;;;;;;;12.27;100.00;95797.59;5078194;28;19978;-73
2023/04/29 08:36:10;;;;;;;;;;;;;;;12.31;100.00;95804.22;5074663;28;19978;-74
2023/04/29 08:38:36;;;;;;;;;;;;;;;12.32;100.00;95797.25;5082316;28;20382;-74
2023/04/29 08:41:02;;;;;;;;;;;;;;;12.55;100.00;95803.44;5079959;28;19928;-73
2023/04/29 08:43:28;;;;;;;;;;;;;;;12.74;100.00;95811.59;5083265;28;19928;-74
2023/04/29 08:45:57;;;;;;;;;;;;;;;12.75;100.00;95810.66;5079723;28;19924;-74
2023/04/29 08:48:25;;;;;;;;;;;;;;;12.79;100.00;95809.53;5089009;28;19924;-74
2023/04/29 08:50:51;;;;;;;;;;;;;;;12.77;100.00;95813.16;5079639;28;19925;-73
2023/04/29 08:53:17;;;;;;;;;;;;;;;12.78;100.00;95813.03;5095235;28;19928;-74
2023/04/29 08:55:45;;;;;;;;;;;;;;;12.89;100.00;95804.47;5088593;28;19978;-74
2023/04/29 08:58:12;;;;;;;;;;;;;;;12.66;100.00;95808.72;5080154;28;19931;-74
2023/04/29 09:00:39;;;;;;;;;;;;;;;12.62;100.00;95819.44;5071688;28;19928;-74
2023/04/29 09:03:11;;;;;;;;;;;;;;;12.47;100.00;95808.34;5072973;28;19925;-74
2023/04/29 09:05:41;;;;;;;;;;;;;;;12.48;100.00;95815.19;5084850;28;19932;-74
2023/04/29 09:08:07;;;;;;;;;;;;;;;12.54;100.00;95815.59;5082117;28;20272;-74
2023/04/29 09:10:35;;;;;;;;;;;;;;;12.42;100.00;95813.88;5080065;28;19994;-74
2023/04/29 09:13:02;;;;;;;;;;;;;;;12.48;100.00;95810.00;5076872;28;19928;-74
2023/04/29 09:15:28;;;;;;;;;;;;;;;12.50;100.00;95814.16;5082073;28;19928;-74
2023/04/29 09:17:55;;;;;;;;;;;;;;;12.52;100.00;95817.47;5083805;28;20063;-74
2023/04/29 09:20:26;;;;;;;;;;;;;;;12.65;100.00;95820.06;5078387;28;20667;-74
2023/04/29 09:22:54;;;;;;;;;;;;;;;12.72;100.00;95825.63;5076582;28;19928;-74
2023/04/29 09:25:21;;;;;;;;;;;;;;;12.74;100.00;95834.16;5079205;28;19978;-74
2023/04/29 09:27:47;;;;;;;;;;;;;;;12.66;100.00;95831.28;5070855;28;19986;-73
2023/04/29 09:30:15;;;;;;;;;;;;;;;12.77;100.00;95826.97;5074093;28;19946;-73
2023/04/29 09:32:41;;;;;;;;;;;;;;;12.73;100.00;95828.13;5082189;28;19924;-74
2023/04/29 09:35:24;;;;;;;;;;;;;;;12.96;100.00;95821.31;5084295;28;20401;-74
2023/04/29 09:37:52;;;;;;;;;;;;;;;13.17;100.00;95829.34;5081880;28;20003;-74
2023/04/29 09:40:30;;;;;;;;;;;;;;;13.35;100.00;95821.16;5074437;28;20188;-74
2023/04/29 09:42:56;;;;;;;;;;;;;;;13.73;100.00;95826.16;5079805;28;19968;-74
2023/04/29 09:45:33;;;;;;;;;;;;;;;13.54;100.00;95821.50;5075487;28;19929;-74
2023/04/29 09:48:01;;;;;;;;;;;;;;;13.32;100.00;95824.84;5079154;28;20011;-74
2023/04/29 09:50:27;;;;;;;;;;;;;;;13.54;100.00;95821.50;5076459;28;19936;-75
2023/04/29 09:52:54;;;;;;;;;;;;;;;13.63;100.00;95826.00;5073543;28;19929;-74
2023/04/29 09:55:20;;;;;;;;;;;;;;;13.86;100.00;95832.09;5073745;28;19937;-74
2023/04/29 09:57:48;;;;;;;;;;;;;;;13.77;100.00;95825.00;5079242;28;19970;-73
2023/04/29 10:00:14;;;;;;;;;;;;;;;13.89;100.00;95823.25;5077114;28;20360;-74
2023/04/29 10:02:41;;;;;;;;;;;;;;;13.88;100.00;95834.59;5075559;28;19963;-73
2023/04/29 10:05:09;;;;;;;;;;;;;;;14.13;100.00;95831.81;5083493;28;19989;-74
2023/04/29 10:07:39;;;;;;;;;;;;;;;13.97;100.00;95821.72;5076033;28;20015;-74
2023/04/29 10:10:07;;;;;;;;;;;;;;;13.86;100.00;95824.28;5074053;28;19928;-75
2023/04/29 10:12:34;;;;;;;;;;;;;;;13.69;100.00;95828.16;5080851;28;20313;-74
2023/04/29 10:15:03;;;;;;;;;;;;;;;13.81;100.00;95826.41;5065269;28;19925;-74
2023/04/29 10:17:36;;;;;;;;;;;;;;;13.39;100.00;95831.25;5074706;28;20383;-74
2023/04/29 10:20:05;;;;;;;;;;;;;;;13.50;100.00;95836.50;5067779;28;19973;-72
2023/04/29 10:22:35;;;;;;;;;;;;;;;13.29;100.00;95833.69;5083738;28;20019;-74
2023/04/29 10:25:03;;;;;;;;;;;;;;;13.77;100.00;95846.63;5078472;28;19949;-75
2023/04/29 10:27:32;;;;;;;;;;;;;;;13.86;100.00;95837.31;5078840;28;19964;-74
2023/04/29 10:29:58;;;;;;;;;;;;;;;13.75;100.00;95832.91;5081579;28;20070;-74
2023/04/29 10:32:26;;;;;;;;;;;;;;;13.32;100.00;95836.06;5078121;28;19947;-74
2023/04/29 10:34:55;;;;;;;;;;;;;;;13.34;100.00;95838.53;5084604;28;19935;-74
2023/04/29 10:37:22;;;;;;;;;;;;;;;13.70;100.00;95829.81;5082266;28;20355;-74
2023/04/29 10:39:52;;;;;;;;;;;;;;;13.06;100.00;95834.50;5078358;28;20379;-74
2023/04/29 10:42:21;;;;;;;;;;;;;;;13.23;100.00;95826.31;5059424;28;19930;-74
2023/04/29 10:45:06;;;;;;;;;;;;;;;13.76;100.00;95829.38;5062270;28;20061;-74
2023/04/29 10:47:34;;;;;;;;;;;;;;;14.19;100.00;95833.94;5077888;28;19928;-74
2023/04/29 10:50:04;;;;;;;;;;;;;;;13.71;100.00;95836.66;5081778;28;19928;-74
2023/04/29 10:52:30;;;;;;;;;;;;;;;14.27;100.00;95839.38;5082435;28;19928;-74
2023/04/29 10:55:03;;;;;;;;;;;;;;;14.23;100.00;95832.75;5077907;28;20019;-75
2023/04/29 10:57:29;;;;;;;;;;;;;;;13.93;100.00;95840.28;5080320;28;20011;-74
2023/04/29 10:59:56;;;;;;;;;;;;;;;13.54;100.00;95822.31;5080123;28;20345;-74
2023/04/29 11:02:22;;;;;;;;;;;;;;;13.36;100.00;95822.84;5076785;28;20019;-74
2023/04/29 11:05:09;;;;;;;;;;;;;;;13.70;100.00;95839.41;5080322;28;19925;-75
2023/04/29 11:07:37;;;;;;;;;;;;;;;14.01;100.00;95835.31;5078006;28;21309;-74
2023/04/29 11:10:04;;;;;;;;;;;;;;;13.80;100.00;95830.78;5063576;28;19927;-74
2023/04/29 11:12:30;;;;;;;;;;;;;;;14.21;100.00;95831.22;5078454;28;19925;-74
2023/04/29 11:15:01;;;;;;;;;;;;;;;13.68;100.00;95831.72;5078908;28;19932;-74
2023/04/29 11:17:35;;;;;;;;;;;;;;;13.45;100.00;95829.97;5081358;28;19970;-74
2023/04/29 11:20:01;;;;;;;;;;;;;;;13.08;100.00;95830.81;5074973;28;20390;-75
2023/04/29 11:22:31;;;;;;;;;;;;;;;13.30;100.00;95826.69;5077585;28;19928;-74
2023/04/29 11:24:59;;;;;;;;;;;;;;;13.25;100.00;95824.44;5078217;28;19945;-75
2023/04/29 11:27:26;;;;;;;;;;;;;;;13.19;100.00;95830.03;5081422;28;19925;-74
2023/04/29 11:29:56;;;;;;;;;;;;;;;13.28;100.00;95832.03;5076566;28;19936;-75
2023/04/29 11:32:24;;;;;;;;;;;;;;;13.26;100.00;95838.28;5083663;28;19928;-72
2023/04/29 11:34:50;;;;;;;;;;;;;;;13.15;100.00;95839.00;5081032;28;19930;-72
2023/04/29 11:37:20;;;;;;;;;;;;;;;13.22;100.00;95839.41;5083074;28;19928;-70
2023/04/29 11:39:48;;;;;;;;;;;;;;;13.19;100.00;95835.25;5075232;28;20011;-70
2023/04/29 11:42:19;;;;;;;;;;;;;;;13.23;100.00;95839.31;5079261;28;20003;-70
2023/04/29 11:44:45;;;;;;;;;;;;;;;13.20;100.00;95836.06;5075395;28;19924;-70
2023/04/29 11:47:12;;;;;;;;;;;;;;;13.11;100.00;95837.56;5080846;28;19924;-69
2023/04/29 11:49:39;;;;;;;;;;;;;;;13.28;100.00;95841.59;5077057;28;19929;-70
2023/04/29 11:52:05;;;;;;;;;;;;;;;13.13;100.00;95838.31;5088148;28;19924;-72
2023/04/29 11:54:31;;;;;;;;;;;;;;;13.24;100.00;95842.78;5078990;28;19924;-70
2023/04/29 11:57:01;;;;;;;;;;;;;;;13.06;100.00;95844.88;5085242;28;19981;-72
2023/04/29 11:59:28;;;;;;;;;;;;;;;13.03;100.00;95840.72;5084049;28;19996;-69
2023/04/29 12:01:54;;;;;;;;;;;;;;;13.11;100.00;95840.19;5078585;28;19943;-70
2023/04/29 12:04:20;;;;;;;;;;;;;;;13.03;100.00;95840.72;5082727;28;20393;-70
2023/04/29 12:06:51;;;;;;;;;;;;;;;13.21;100.00;95835.16;5079258;28;20367;-70
2023/04/29 12:09:18;;;;;;;;;;;;;;;13.10;100.00;95838.53;5075777;28;20510;-70
2023/04/29 12:11:45;;;;;;;;;;;;;;;13.39;100.00;95835.63;5077528;28;19966;-72
2023/04/29 12:14:13;;;;;;;;;;;;;;;13.78;100.00;95840.47;5065757;28;19924;-70
2023/04/29 12:16:40;;;;;;;;;;;;;;;13.66;100.00;95838.78;5074079;28;20118;-69
2023/04/29 12:19:09;;;;;;;;;;;;;;;13.73;100.00;95842.59;5074934;28;19969;-70
2023/04/29 12:21:35;;;;;;;;;;;;;;;13.92;100.00;95841.25;5076475;28;20299;-70
2023/04/29 12:24:02;;;;;;;;;;;;;;;14.20;100.00;95838.22;5074169;28;19952;-70
2023/04/29 12:26:30;;;;;;;;;;;;;;;14.20;100.00;95835.63;5079006;28;19928;-70
2023/04/29 12:28:57;;;;;;;;;;;;;;;14.20;100.00;95833.00;5074580;28;19924;-69
2023/04/29 12:31:31;;;;;;;;;;;;;;;14.21;100.00;95836.44;5078035;28;19926;-70
2023/04/29 12:33:57;;;;;;;;;;;;;;;14.45;100.00;95829.31;5073614;28;19932;-70
2023/04/29 12:36:23;;;;;;;;;;;;;;;14.70;100.00;95835.28;5072240;28;19932;-70
2023/04/29 12:38:53;;;;;;;;;;;;;;;14.99;98.27;95835.59;5081135;28;20037;-71
2023/04/29 12:41:20;;;;;;;;;;;;;;;15.00;90.88;95837.25;5084551;28;19928;-70